Stevensville, MI (49127)

3:38 AM EDT on September 01, 2015 (GMT -0400)
KC8MGD | | Change Station
CLOSE
Current Station
Personal Weather Station
Location: Stevensville, MI
Elevation: 636 ft
Nearby Weather Stations
Active Advisory: Special Statement

Elev 636 ft 42.04 °N, 86.51 °W | Updated 3 minutes ago

Clear
Clear
70.1 °F
Feels Like 70.1 °F
N
0.0
Wind Variable Wind from WNW
Gusts 0.0 mph

Today
High -- | Low -- °F
--% Chance of Precip.
Yesterday
High -- | Low -- °F
Precip. -- in
7:11 AM 8:20 PM
Waning Gibbous, 90% visible
Pressure 30.05 in
Visibility 5.0 miles
Clouds Clear
Dew Point 67 °F
Humidity 91%
Rainfall 0.00 in
Snow Depth Not available.
UV 0 out of 12
Pollen 10.40 out of 12
Air Quality Not available.
Flu Activity Not available.
METAR KBEH 010653Z AUTO 00000KT 5SM BR CLR 21/19 A3006 RMK AO2 SLP175 T02060194
Pressure 30.05 in
Visibility 5.0 miles
Clouds Clear
Dew Point 67 °F
Humidity 91%
Rainfall 0.00 in
Snow Depth Not available.
UV 0 out of 12
Pollen 10.40 out of 12
Air Quality Not available.
Flu Activity Not available.
METAR KBEH 010653Z AUTO 00000KT 5SM BR CLR 21/19 A3006 RMK AO2 SLP175 T02060194

10-Day Weather Forecast

×

Almanac

Astronomy

Sep. 01, 2015 Rise Set
Actual Time
Civil Twilight
Nautical Twilight
Astronomical Twilight
Moon
Length of Visible Light
Length of Day
Tomorrow will be .
, % of the Moon is Illuminated

Today's Extremes

State Highs State Lows

Community

WunderPhotos

Upload Photos

1,851,488 photos uploaded!

WunderBlogs® & News

Nearby

Air Quality

  Air Quality AQ Index Pollutant
Not available.

Snow Depth

Station Depth Elevation

Earthquake Activity

City Distance Mag. Time & Date
Minimum magnitude displayed is 2.5.

Coastal Water Temperatures

Place Temperature

Stations

Nearby Weather Stations

Station Location Temp. Windchill Dew Point Humidity Wind Precip. Elev Updated Type
                   
Special Statement
Statement as of 2:05 AM EDT on September 01, 2015

... Areas of fog to continue through early morning...

Areas of fog will continue to develop overnight with some
localized patches of dense fog possible. Visibilities of one
quarter of a mile or less may accompany the denser fog patches.
Motorists should be prepared for fluctuating visibilities this
morning due to the patchy nature of the fog. The fog is expected
to burn off after 8 am EDT this morning.


205 am EDT Tue Sep 1 2015

... Areas of fog to continue through early morning...

Areas of fog will continue to develop overnight with some
localized patches of dense fog possible. Visibilities of one
quarter of a mile or less may accompany the denser fog patches.
Motorists should be prepared for fluctuating visibilities this
morning due to the patchy nature of the fog. The fog is expected
to burn off after 8 am EDT this morning.